createdAt,value
2022-11-13T00:01:18.645Z,79.15
2022-11-13T00:03:46.531Z,78.98
2022-11-13T00:06:15.402Z,78.68
2022-11-13T00:08:43.668Z,78.60
2022-11-13T00:11:14.813Z,78.57
2022-11-13T00:13:43.071Z,78.69
2022-11-13T00:16:12.788Z,78.95
2022-11-13T00:18:42.757Z,78.57
2022-11-13T00:21:14.006Z,78.60
2022-11-13T00:23:41.844Z,78.89
2022-11-13T00:26:12.959Z,78.51
2022-11-13T00:28:41.155Z,78.44
2022-11-13T00:31:10.166Z,78.66
2022-11-13T00:34:05.407Z,78.90
2022-11-13T00:36:28.747Z,78.82
2022-11-13T00:38:56.833Z,78.56
2022-11-13T00:41:25.374Z,78.77
2022-11-13T00:43:53.313Z,79.29
2022-11-13T00:46:21.357Z,78.89
2022-11-13T00:48:49.094Z,78.98
2022-11-13T00:51:16.828Z,79.20
2022-11-13T00:53:45.906Z,78.73
2022-11-13T00:56:13.734Z,79.31
2022-11-13T00:58:41.478Z,79.33
2022-11-13T01:01:12.328Z,79.03
2022-11-13T01:03:40.715Z,79.02
2022-11-13T01:06:13.442Z,79.42
2022-11-13T01:08:41.196Z,79.28
2022-11-13T01:11:12.119Z,79.14
2022-11-13T01:13:40.449Z,78.77
2022-11-13T01:16:10.979Z,79.12
2022-11-13T01:18:39.080Z,79.46
2022-11-13T01:21:09.498Z,79.31
2022-11-13T01:23:37.401Z,78.94
2022-11-13T01:26:06.949Z,79.60
2022-11-13T01:28:36.082Z,79.29
2022-11-13T01:31:06.344Z,79.51
2022-11-13T01:33:34.152Z,79.42
2022-11-13T01:36:02.782Z,79.51
2022-11-13T01:38:35.769Z,79.53
2022-11-13T01:41:03.879Z,79.41
2022-11-13T01:43:33.482Z,79.28
2022-11-13T01:46:15.351Z,79.40
2022-11-13T01:48:46.722Z,79.42
2022-11-13T01:51:19.888Z,79.62
2022-11-13T01:53:49.065Z,79.50
2022-11-13T01:56:18.220Z,79.29
2022-11-13T01:58:50.002Z,79.38
2022-11-13T02:01:19.171Z,79.41
2022-11-13T02:03:46.907Z,79.32
2022-11-13T02:06:15.095Z,79.55
2022-11-13T02:08:44.422Z,79.43
2022-11-13T02:11:12.537Z,79.19
2022-11-13T02:13:40.842Z,79.57
2022-11-13T02:16:11.354Z,79.48
2022-11-13T02:18:41.359Z,79.78
2022-11-13T02:21:19.466Z,79.31
2022-11-13T02:23:54.336Z,79.54
2022-11-13T02:26:27.461Z,80.12
2022-11-13T02:28:55.273Z,79.71
2022-11-13T02:31:22.938Z,80.06
2022-11-13T02:33:50.636Z,79.38
2022-11-13T02:36:22.183Z,79.38
2022-11-13T02:38:51.395Z,79.90
2022-11-13T02:41:19.145Z,79.89
2022-11-13T02:43:48.266Z,80.06
2022-11-13T02:46:15.949Z,79.99
2022-11-13T02:48:43.620Z,79.53
2022-11-13T02:51:11.337Z,79.68
2022-11-13T02:53:39.069Z,79.93
2022-11-13T02:56:07.494Z,79.64
2022-11-13T02:58:35.341Z,79.46
2022-11-13T03:01:05.149Z,79.66
2022-11-13T03:03:56.408Z,79.86
2022-11-13T03:06:20.536Z,79.63
2022-11-13T03:08:48.426Z,79.70
2022-11-13T03:11:16.130Z,79.39
2022-11-13T03:13:43.828Z,79.00
2022-11-13T03:16:14.841Z,79.10
2022-11-13T03:18:42.754Z,79.57
2022-11-13T03:21:13.083Z,79.07
2022-11-13T03:23:44.991Z,79.53
2022-11-13T03:26:15.770Z,79.35
2022-11-13T03:28:44.302Z,79.67
2022-11-13T03:31:14.124Z,79.43
2022-11-13T03:33:42.018Z,78.72
2022-11-13T03:36:09.958Z,79.03
2022-11-13T03:38:37.956Z,78.70
2022-11-13T03:41:06.144Z,79.05
2022-11-13T03:43:33.841Z,79.26
2022-11-13T03:46:01.596Z,78.94
2022-11-13T03:48:30.922Z,79.55
2022-11-13T03:50:58.957Z,79.07
2022-11-13T03:53:26.954Z,79.52
2022-11-13T03:55:54.658Z,79.35
2022-11-13T03:58:22.376Z,78.75
2022-11-13T04:00:51.720Z,78.85
2022-11-13T04:03:20.103Z,78.76
2022-11-13T04:05:51.068Z,78.98
2022-11-13T04:08:19.396Z,79.36
2022-11-13T04:10:47.229Z,79.21
2022-11-13T04:13:15.020Z,79.21
2022-11-13T04:15:45.114Z,78.88
2022-11-13T04:18:13.009Z,79.01
2022-11-13T04:20:40.699Z,79.12
2022-11-13T04:23:12.601Z,78.85
2022-11-13T04:25:40.370Z,79.09
2022-11-13T04:28:08.093Z,79.00
2022-11-13T04:30:35.758Z,79.03
2022-11-13T04:33:03.481Z,79.20
2022-11-13T04:35:31.185Z,79.18
2022-11-13T04:37:58.857Z,79.23
2022-11-13T04:40:27.943Z,79.22
2022-11-13T04:42:54.645Z,79.28
2022-11-13T04:45:27.438Z,78.87
2022-11-13T04:47:55.213Z,79.21
2022-11-13T04:50:23.353Z,79.12
2022-11-13T04:52:51.398Z,79.12
2022-11-13T04:55:19.179Z,78.72
2022-11-13T04:57:51.463Z,79.05
2022-11-13T05:00:19.710Z,79.14
2022-11-13T05:02:47.461Z,78.94
2022-11-13T05:05:15.180Z,78.96
2022-11-13T05:07:43.480Z,79.31
2022-11-13T05:10:11.217Z,79.51
2022-11-13T05:12:38.884Z,78.81
2022-11-13T05:15:09.273Z,79.13
2022-11-13T05:17:37.074Z,79.14
2022-11-13T05:20:05.421Z,79.03
2022-11-13T05:22:33.097Z,78.77
2022-11-13T05:25:00.851Z,79.00
2022-11-13T05:27:28.519Z,79.20
2022-11-13T05:29:56.262Z,79.39
2022-11-13T05:32:25.357Z,79.00
2022-11-13T05:34:53.093Z,79.48
2022-11-13T05:37:20.898Z,79.13
2022-11-13T05:39:48.631Z,79.16
2022-11-13T05:42:16.387Z,79.29
2022-11-13T05:44:44.271Z,78.92
2022-11-13T05:47:11.943Z,78.98
2022-11-13T05:49:41.029Z,79.13
2022-11-13T05:52:08.774Z,78.98
2022-11-13T05:54:37.066Z,78.94
2022-11-13T05:57:04.943Z,79.01
2022-11-13T05:59:32.671Z,78.99
2022-11-13T06:02:02.510Z,78.93
2022-11-13T06:04:30.261Z,79.21
2022-11-13T06:06:59.362Z,78.96
2022-11-13T06:09:27.130Z,79.10
2022-11-13T06:11:54.779Z,78.95
2022-11-13T06:14:22.449Z,78.78
2022-11-13T06:16:50.154Z,78.80
2022-11-13T06:19:17.855Z,78.92
2022-11-13T06:21:45.548Z,78.90
2022-11-13T06:24:14.834Z,79.03
2022-11-13T06:26:42.854Z,78.81
2022-11-13T06:29:12.997Z,78.97
2022-11-13T06:31:40.835Z,78.93
2022-11-13T06:34:08.798Z,79.22
2022-11-13T06:36:38.113Z,79.20
2022-11-13T06:39:07.605Z,79.20
2022-11-13T06:41:38.247Z,79.04
2022-11-13T06:44:06.372Z,78.85
2022-11-13T06:46:34.359Z,78.67
2022-11-13T06:49:02.086Z,78.90
2022-11-13T06:51:31.401Z,78.83
2022-11-13T06:53:59.433Z,78.92
2022-11-13T06:56:27.561Z,78.84
2022-11-13T06:58:56.953Z,78.84
2022-11-13T07:01:26.717Z,79.04
2022-11-13T07:03:54.737Z,78.74
2022-11-13T07:06:24.267Z,78.75
2022-11-13T07:08:52.480Z,78.59
2022-11-13T07:11:22.339Z,79.13
2022-11-13T07:13:50.514Z,79.03
2022-11-13T07:16:19.984Z,78.88
2022-11-13T07:18:51.751Z,79.08
2022-11-13T07:21:20.057Z,79.14
2022-11-13T07:23:49.457Z,78.85
2022-11-13T07:26:17.333Z,78.98
2022-11-13T07:28:45.112Z,78.99
2022-11-13T07:31:14.256Z,79.04
2022-11-13T07:33:43.977Z,79.19
2022-11-13T07:36:12.073Z,79.07
2022-11-13T07:38:39.852Z,79.17
2022-11-13T07:41:08.381Z,79.08
2022-11-13T07:43:36.105Z,79.52
2022-11-13T07:46:03.889Z,79.26
2022-11-13T07:48:32.026Z,79.11
2022-11-13T07:51:02.867Z,79.21
2022-11-13T07:53:30.821Z,79.27
2022-11-13T07:56:02.177Z,79.05
2022-11-13T07:58:30.460Z,79.16
2022-11-13T08:01:03.224Z,79.33
2022-11-13T08:03:30.958Z,79.67
2022-11-13T08:06:03.547Z,79.57
2022-11-13T08:08:31.641Z,79.52
2022-11-13T08:10:59.591Z,79.89
2022-11-13T08:13:27.356Z,79.78
2022-11-13T08:15:55.074Z,79.99
2022-11-13T08:18:22.800Z,80.14
2022-11-13T08:20:50.552Z,79.86
2022-11-13T08:23:19.693Z,80.17
2022-11-13T08:25:47.606Z,80.05
2022-11-13T08:28:15.559Z,79.88
2022-11-13T08:30:45.026Z,79.51
2022-11-13T08:33:12.872Z,79.28
2022-11-13T08:35:40.583Z,78.87
2022-11-13T08:38:10.131Z,78.39
2022-11-13T08:40:39.357Z,78.54
2022-11-13T08:43:07.111Z,78.32
2022-11-13T08:45:34.851Z,78.14
2022-11-13T08:48:03.095Z,78.02
2022-11-13T08:50:32.072Z,78.04
2022-11-13T08:53:01.381Z,77.51
2022-11-13T08:55:29.587Z,77.18
2022-11-13T08:58:01.821Z,76.74
2022-11-13T09:00:30.904Z,77.22
2022-11-13T09:02:59.865Z,77.21
2022-11-13T09:05:27.927Z,76.50
2022-11-13T09:07:58.138Z,76.38
2022-11-13T09:10:26.937Z,76.83
2022-11-13T09:12:59.061Z,76.32
2022-11-13T09:15:28.839Z,76.33
2022-11-13T09:18:00.592Z,76.17
2022-11-13T09:20:29.118Z,75.95
2022-11-13T09:23:00.612Z,75.61
2022-11-13T09:25:35.835Z,75.50
2022-11-13T09:28:05.623Z,75.41
2022-11-13T09:30:34.814Z,75.23
2022-11-13T09:33:02.878Z,74.88
2022-11-13T09:35:35.088Z,74.43
2022-11-13T09:38:07.870Z,74.36
2022-11-13T09:40:42.978Z,74.27
2022-11-13T09:43:22.468Z,74.18
2022-11-13T09:45:54.028Z,74.07
2022-11-13T09:48:30.195Z,74.03
2022-11-13T09:51:00.647Z,72.87
2022-11-13T09:53:35.456Z,72.85
2022-11-13T09:56:16.027Z,72.35
2022-11-13T09:58:47.991Z,71.96
2022-11-13T10:01:27.168Z,71.93
2022-11-13T10:04:04.212Z,72.16
2022-11-13T10:06:47.835Z,71.13
2022-11-13T10:09:26.161Z,70.72
2022-11-13T10:11:56.675Z,69.83
2022-11-13T10:14:30.267Z,68.93
2022-11-13T10:17:04.617Z,69.09
2022-11-13T10:19:43.658Z,68.59
2022-11-13T10:22:34.116Z,68.71
2022-11-13T10:25:11.665Z,67.86
2022-11-13T10:27:39.771Z,67.77
2022-11-13T10:30:15.199Z,66.04
2022-11-13T10:32:45.365Z,65.16
2022-11-13T10:35:38.187Z,65.05
2022-11-13T10:38:09.165Z,64.82
2022-11-13T10:40:39.607Z,64.59
2022-11-13T10:43:15.282Z,64.31
2022-11-13T10:45:43.698Z,63.97
2022-11-13T10:48:22.331Z,63.52
2022-11-13T10:50:58.752Z,61.60
2022-11-13T10:53:28.918Z,60.84
2022-11-13T10:55:58.661Z,59.21
2022-11-13T10:58:27.042Z,58.27
2022-11-13T11:00:54.994Z,58.54
2022-11-13T11:03:25.803Z,57.22
2022-11-13T11:05:55.490Z,58.06
2022-11-13T11:08:27.492Z,57.52
2022-11-13T11:11:16.343Z,57.97
2022-11-13T11:13:44.658Z,58.52
2022-11-13T11:16:19.292Z,57.58
2022-11-13T11:18:53.882Z,57.35
2022-11-13T11:21:24.821Z,56.47
2022-11-13T11:23:58.817Z,56.95
2022-11-13T11:26:33.639Z,56.81
2022-11-13T11:29:17.578Z,55.57
2022-11-13T11:31:51.466Z,54.11
2022-11-13T11:34:25.449Z,54.32
2022-11-13T11:36:58.753Z,54.53
2022-11-13T11:39:30.621Z,54.25
2022-11-13T11:42:06.855Z,53.69
2022-11-13T11:44:43.698Z,53.64
2022-11-13T11:47:16.099Z,53.23
2022-11-13T11:49:46.379Z,53.26
2022-11-13T11:52:30.209Z,53.12
2022-11-13T11:55:08.496Z,53.01
2022-11-13T11:57:49.573Z,52.40
2022-11-13T12:00:19.693Z,52.32
2022-11-13T12:03:14.927Z,52.53
2022-11-13T12:05:56.331Z,52.75
2022-11-13T12:08:35.112Z,52.27
2022-11-13T12:11:12.843Z,52.33
2022-11-13T12:13:51.547Z,52.74
2022-11-13T12:16:25.520Z,53.16
2022-11-13T12:19:01.540Z,52.26
2022-11-13T12:21:40.718Z,52.54
2022-11-13T12:24:43.577Z,51.03
2022-11-13T12:27:22.393Z,51.98
2022-11-13T12:30:02.561Z,51.21
2022-11-13T12:32:45.595Z,52.74
2022-11-13T12:35:17.832Z,51.80
2022-11-13T12:37:53.688Z,52.05
2022-11-13T12:40:29.385Z,52.03
2022-11-13T12:43:08.382Z,52.59
2022-11-13T12:45:50.832Z,52.22
2022-11-13T12:48:28.006Z,52.56
2022-11-13T12:51:01.347Z,52.65
2022-11-13T12:53:32.609Z,52.24
2022-11-13T12:56:02.685Z,51.87
2022-11-13T12:58:32.652Z,51.77
2022-11-13T13:01:06.735Z,51.71
2022-11-13T13:04:03.383Z,50.38
2022-11-13T13:06:47.474Z,51.24
2022-11-13T13:09:31.131Z,50.91
2022-11-13T13:12:07.982Z,51.59
2022-11-13T13:15:04.148Z,51.39
2022-11-13T13:17:31.853Z,51.19
2022-11-13T13:20:01.513Z,51.04
2022-11-13T13:22:33.169Z,51.46
2022-11-13T13:25:05.267Z,51.74
2022-11-13T13:27:38.464Z,52.42
2022-11-13T13:30:21.913Z,51.68
2022-11-13T13:32:58.709Z,52.57
2022-11-13T13:35:31.630Z,52.56
2022-11-13T13:38:07.019Z,53.01
2022-11-13T13:40:42.239Z,53.31
2022-11-13T13:43:29.320Z,52.92
2022-11-13T13:46:05.815Z,52.61
2022-11-13T13:48:37.751Z,52.43
2022-11-13T13:51:12.864Z,52.06
2022-11-13T13:53:40.585Z,52.19
2022-11-13T13:56:13.295Z,52.31
2022-11-13T13:58:41.723Z,52.04
2022-11-13T14:01:19.671Z,51.67
2022-11-13T14:03:48.150Z,52.31
2022-11-13T14:06:21.075Z,53.09
2022-11-13T14:08:49.376Z,52.24
2022-11-13T14:11:20.462Z,51.81
2022-11-13T14:13:49.505Z,51.71
2022-11-13T14:16:17.212Z,51.98
2022-11-13T14:18:45.012Z,51.62
2022-11-13T14:21:16.616Z,51.19
2022-11-13T14:23:47.996Z,51.80
2022-11-13T14:26:16.196Z,51.64
2022-11-13T14:28:53.386Z,52.35
2022-11-13T14:31:26.470Z,51.46
2022-11-13T14:33:54.376Z,51.90
2022-11-13T14:36:29.866Z,51.07
2022-11-13T14:38:58.201Z,51.89
2022-11-13T14:41:32.868Z,51.58
2022-11-13T14:44:02.837Z,51.61
2022-11-13T14:46:32.944Z,52.30
2022-11-13T14:49:00.942Z,52.55
2022-11-13T14:51:30.718Z,52.58
2022-11-13T14:54:07.447Z,52.67
2022-11-13T14:56:40.292Z,52.87
2022-11-13T14:59:14.444Z,52.55
2022-11-13T15:01:55.225Z,52.94
2022-11-13T15:04:23.372Z,53.56
2022-11-13T15:06:58.007Z,53.52
2022-11-13T15:09:26.373Z,53.91
2022-11-13T15:11:54.125Z,54.12
2022-11-13T15:14:23.761Z,53.26
2022-11-13T15:16:53.672Z,53.41
2022-11-13T15:19:28.205Z,54.31
2022-11-13T15:22:25.092Z,54.92
2022-11-13T15:24:44.217Z,54.80
2022-11-13T15:27:14.947Z,55.00
2022-11-13T15:29:44.537Z,55.46
2022-11-13T15:32:13.969Z,55.37
2022-11-13T15:34:41.685Z,55.47
2022-11-13T15:37:13.872Z,55.73
2022-11-13T15:39:41.583Z,56.16
2022-11-13T15:42:14.464Z,56.60
2022-11-13T15:44:42.251Z,56.98
2022-11-13T15:47:29.648Z,57.43
2022-11-13T15:50:13.005Z,57.78
2022-11-13T15:52:48.679Z,57.89
2022-11-13T15:55:29.955Z,58.45
2022-11-13T15:57:59.105Z,58.52
2022-11-13T16:00:28.527Z,58.82
2022-11-13T16:03:01.183Z,59.27
2022-11-13T16:05:31.572Z,59.64
2022-11-13T16:07:59.305Z,59.97
2022-11-13T16:10:27.381Z,60.31
2022-11-13T16:12:55.401Z,60.52
2022-11-13T16:15:23.267Z,60.97
2022-11-13T16:17:53.675Z,61.24
2022-11-13T16:20:22.749Z,61.60
2022-11-13T16:22:50.617Z,61.88
2022-11-13T16:25:20.313Z,62.21
2022-11-13T16:27:48.662Z,62.47
2022-11-13T16:30:20.047Z,62.72
2022-11-13T16:32:48.555Z,62.69
2022-11-13T16:35:17.577Z,63.05
2022-11-13T16:37:47.291Z,63.31
2022-11-13T16:40:21.701Z,63.21
2022-11-13T16:42:49.395Z,63.44
2022-11-13T16:45:18.090Z,63.66
2022-11-13T16:47:46.422Z,63.82
2022-11-13T16:50:17.097Z,63.76
2022-11-13T16:52:46.199Z,64.05
2022-11-13T16:55:14.043Z,64.25
2022-11-13T16:57:42.348Z,64.28
2022-11-13T17:00:15.207Z,64.75
2022-11-13T17:02:43.155Z,64.95
2022-11-13T17:05:13.565Z,65.10
2022-11-13T17:07:41.449Z,65.27
2022-11-13T17:13:01.685Z,65.45
2022-11-13T17:15:29.423Z,65.41
2022-11-13T17:17:58.747Z,65.22
2022-11-13T17:20:26.629Z,65.52
2022-11-13T17:22:54.289Z,65.60
2022-11-13T17:25:26.476Z,65.61
2022-11-13T17:27:54.301Z,65.91
2022-11-13T17:30:22.046Z,65.81
2022-11-13T17:32:49.798Z,66.08
2022-11-13T17:35:17.711Z,66.14
2022-11-13T17:37:45.391Z,66.23
2022-11-13T17:40:13.248Z,66.17
2022-11-13T17:42:43.147Z,65.72
2022-11-13T17:45:11.591Z,66.03
2022-11-13T17:47:39.393Z,65.71
2022-11-13T17:50:08.104Z,65.78
2022-11-13T17:52:35.918Z,66.09
2022-11-13T17:55:06.072Z,65.81
2022-11-13T17:57:34.382Z,66.11
2022-11-13T18:00:04.830Z,66.23
2022-11-13T18:02:34.112Z,66.40
2022-11-13T18:05:04.181Z,66.82
2022-11-13T18:07:32.427Z,66.41
2022-11-13T18:10:00.148Z,66.26
2022-11-13T18:12:27.899Z,66.65
2022-11-13T18:14:55.706Z,66.57
2022-11-13T18:17:26.669Z,65.92
2022-11-13T18:20:01.339Z,66.35
2022-11-13T18:22:29.972Z,65.76
2022-11-13T18:24:57.759Z,66.15
2022-11-13T18:27:26.037Z,66.34
2022-11-13T18:29:53.740Z,66.49
2022-11-13T18:32:21.669Z,66.50
2022-11-13T18:34:50.888Z,66.24
2022-11-13T18:37:18.663Z,66.39
2022-11-13T18:39:46.470Z,65.94
2022-11-13T18:42:14.214Z,65.97
2022-11-13T18:44:42.024Z,65.96
2022-11-13T18:47:09.774Z,65.72
2022-11-13T18:49:37.666Z,65.76
2022-11-13T18:52:08.199Z,65.39
2022-11-13T18:54:36.087Z,65.27
2022-11-13T18:57:04.182Z,65.17
2022-11-13T18:59:32.537Z,65.07
2022-11-13T19:02:00.493Z,64.77
2022-11-13T19:04:28.323Z,63.86
2022-11-13T19:06:56.102Z,63.80
2022-11-13T19:09:25.267Z,63.92
2022-11-13T19:11:55.085Z,63.73
2022-11-13T19:14:22.802Z,62.85
2022-11-13T19:16:50.513Z,63.27
2022-11-13T19:19:22.264Z,63.42
2022-11-13T19:21:51.229Z,63.20
2022-11-13T19:24:19.027Z,62.86
2022-11-13T19:26:52.367Z,62.42
2022-11-13T19:29:20.557Z,62.99
2022-11-13T19:31:48.764Z,62.82
2022-11-13T19:34:16.631Z,62.18
2022-11-13T19:36:45.089Z,62.31
2022-11-13T19:39:13.483Z,62.11
2022-11-13T19:41:41.237Z,61.78
2022-11-13T19:44:10.944Z,61.58
2022-11-13T19:46:38.668Z,61.33
2022-11-13T19:49:06.967Z,60.53
2022-11-13T19:51:34.696Z,60.61
2022-11-13T19:54:02.436Z,60.49
2022-11-13T19:56:30.226Z,60.23
2022-11-13T19:58:57.913Z,60.12
2022-11-13T20:01:28.839Z,59.89
2022-11-13T20:03:57.536Z,59.66
2022-11-13T20:06:26.441Z,59.78
2022-11-13T20:08:54.162Z,59.27
2022-11-13T20:11:21.912Z,59.29
2022-11-13T20:13:49.762Z,58.87
2022-11-13T20:16:20.848Z,59.33
2022-11-13T20:18:50.610Z,59.62
2022-11-13T20:21:24.475Z,58.93
2022-11-13T20:23:53.028Z,59.11
2022-11-13T20:26:20.733Z,58.88
2022-11-13T20:28:48.453Z,58.80
2022-11-13T20:31:19.515Z,59.13
2022-11-13T20:33:49.341Z,59.16
2022-11-13T20:36:18.568Z,59.31
2022-11-13T20:38:50.540Z,59.44
2022-11-13T20:41:20.530Z,59.33
2022-11-13T20:43:48.963Z,59.31
2022-11-13T20:46:18.430Z,59.03
2022-11-13T20:48:46.615Z,59.13
2022-11-13T20:51:17.339Z,59.54
2022-11-13T20:53:45.050Z,59.89
2022-11-13T20:56:13.137Z,59.69
2022-11-13T20:58:42.967Z,60.19
2022-11-13T21:01:12.679Z,60.13
2022-11-13T21:03:45.197Z,60.38
2022-11-13T21:06:15.731Z,61.21
2022-11-13T21:08:45.521Z,60.91
2022-11-13T21:11:16.539Z,61.00
2022-11-13T21:13:44.473Z,61.42
2022-11-13T21:16:12.399Z,61.20
2022-11-13T21:18:40.134Z,61.31
2022-11-13T21:21:10.239Z,61.36
2022-11-13T21:23:38.585Z,61.48
2022-11-13T21:26:09.195Z,61.50
2022-11-13T21:28:37.497Z,61.47
2022-11-13T21:31:07.290Z,61.38
2022-11-13T21:33:37.664Z,61.30
2022-11-13T21:36:06.700Z,61.09
2022-11-13T21:38:34.749Z,61.52
2022-11-13T21:41:21.447Z,61.53
2022-11-13T21:43:51.278Z,61.01
2022-11-13T21:46:20.232Z,60.93
2022-11-13T21:48:48.068Z,61.48
2022-11-13T21:51:15.928Z,61.05
2022-11-13T21:53:43.899Z,61.52
2022-11-13T21:56:15.655Z,61.22
2022-11-13T21:58:44.465Z,60.97
2022-11-13T22:01:14.362Z,60.70
2022-11-13T22:03:42.339Z,60.46
2022-11-13T22:06:17.227Z,60.96
2022-11-13T22:08:46.117Z,61.13
2022-11-13T22:11:14.314Z,61.32
2022-11-13T22:13:41.998Z,61.35
2022-11-13T22:16:12.194Z,61.39
2022-11-13T22:18:41.416Z,61.48
2022-11-13T22:21:11.863Z,61.40
2022-11-13T22:23:39.826Z,62.09
2022-11-13T22:26:09.204Z,62.11
2022-11-13T22:28:38.608Z,61.59
2022-11-13T22:31:07.432Z,62.00
2022-11-13T22:33:37.111Z,61.82
2022-11-13T22:36:08.630Z,62.11
2022-11-13T22:38:37.193Z,61.97
2022-11-13T22:41:06.438Z,61.85
2022-11-13T22:43:35.560Z,62.77
2022-11-13T22:46:05.013Z,62.47
2022-11-13T22:48:33.162Z,62.88
2022-11-13T22:51:07.731Z,62.95
2022-11-13T22:53:35.443Z,62.65
2022-11-13T22:56:04.651Z,62.76
2022-11-13T22:58:32.470Z,63.07
2022-11-13T23:01:07.559Z,63.37
2022-11-13T23:03:38.371Z,63.12
2022-11-13T23:06:08.726Z,63.77
2022-11-13T23:08:38.882Z,63.41
2022-11-13T23:11:07.554Z,63.35
2022-11-13T23:13:35.613Z,63.62
2022-11-13T23:16:03.804Z,63.70
2022-11-13T23:18:32.601Z,63.77
2022-11-13T23:21:03.393Z,64.18
2022-11-13T23:23:33.049Z,64.53
2022-11-13T23:26:03.411Z,64.94
2022-11-13T23:28:31.810Z,64.57
2022-11-13T23:30:59.822Z,64.56
2022-11-13T23:33:27.753Z,64.71
2022-11-13T23:35:55.474Z,65.04
2022-11-13T23:38:23.476Z,65.35
2022-11-13T23:40:55.881Z,65.62
2022-11-13T23:43:36.477Z,65.45
2022-11-13T23:46:12.190Z,65.88
2022-11-13T23:48:40.312Z,65.56
2022-11-13T23:51:08.307Z,66.11
2022-11-13T23:53:36.003Z,66.30
2022-11-13T23:56:05.608Z,66.11
2022-11-13T23:58:33.634Z,66.37
